sensor_id;sensor_type;location;lat;lon;timestamp;pressure;altitude;pressure_sealevel;temperature;humidity
27980;BME280;15315;50.836;4.430;2023-02-12T00:00:22;103318.22;;;12.06;83.18
27980;BME280;15315;50.836;4.430;2023-02-12T00:10:23;103316.66;;;12.24;74.75
27980;BME280;15315;50.836;4.430;2023-02-12T00:20:23;103330.97;;;12.27;74.20
27980;BME280;15315;50.836;4.430;2023-02-12T00:30:24;103323.66;;;13.02;72.42
27980;BME280;15315;50.836;4.430;2023-02-12T00:40:24;103326.47;;;12.51;70.48
27980;BME280;15315;50.836;4.430;2023-02-12T00:50:24;103319.81;;;13.08;69.07
27980;BME280;15315;50.836;4.430;2023-02-12T01:00:25;103316.66;;;12.96;67.96
27980;BME280;15315;50.836;4.430;2023-02-12T01:10:26;103317.59;;;12.95;68.70
27980;BME280;15315;50.836;4.430;2023-02-12T01:20:26;103319.03;;;13.49;68.81
27980;BME280;15315;50.836;4.430;2023-02-12T01:30:27;103318.97;;;13.50;67.51
27980;BME280;15315;50.836;4.430;2023-02-12T01:40:27;103301.31;;;13.40;67.19
27980;BME280;15315;50.836;4.430;2023-02-12T01:50:28;103299.31;;;13.45;68.07
27980;BME280;15315;50.836;4.430;2023-02-12T02:00:28;103298.28;;;12.58;65.13
27980;BME280;15315;50.836;4.430;2023-02-12T02:10:29;103300.22;;;13.01;66.28
27980;BME280;15315;50.836;4.430;2023-02-12T02:31:04;103297.28;;;12.84;64.78
27980;BME280;15315;50.836;4.430;2023-02-12T02:41:23;103286.63;;;13.03;63.84
27980;BME280;15315;50.836;4.430;2023-02-12T02:51:31;103282.47;;;13.16;65.12
27980;BME280;15315;50.836;4.430;2023-02-12T03:01:40;103288.84;;;13.58;64.23
27980;BME280;15315;50.836;4.430;2023-02-12T03:11:43;103282.59;;;12.91;64.96
27980;BME280;15315;50.836;4.430;2023-02-12T03:22:03;103284.19;;;13.18;63.95
27980;BME280;15315;50.836;4.430;2023-02-12T03:42:23;103274.13;;;13.22;64.14
27980;BME280;15315;50.836;4.430;2023-02-12T03:52:27;103264.28;;;13.41;63.68
27980;BME280;15315;50.836;4.430;2023-02-12T04:02:28;103266.03;;;13.42;64.28
27980;BME280;15315;50.836;4.430;2023-02-12T04:12:38;103272.78;;;12.87;62.98
27980;BME280;15315;50.836;4.430;2023-02-12T04:33:10;103294.44;;;13.10;62.67
27980;BME280;15315;50.836;4.430;2023-02-12T04:43:12;103294.31;;;13.13;62.13
27980;BME280;15315;50.836;4.430;2023-02-12T04:53:13;103299.78;;;13.35;63.09
27980;BME280;15315;50.836;4.430;2023-02-12T05:03:13;103294.63;;;13.27;64.28
27980;BME280;15315;50.836;4.430;2023-02-12T05:13:13;103292.53;;;13.12;64.95
27980;BME280;15315;50.836;4.430;2023-02-12T05:23:14;103299.47;;;12.97;64.96
27980;BME280;15315;50.836;4.430;2023-02-12T05:33:14;103291.03;;;12.82;63.85
27980;BME280;15315;50.836;4.430;2023-02-12T05:43:14;103295.03;;;12.95;65.72
27980;BME280;15315;50.836;4.430;2023-02-12T05:53:15;103294.34;;;12.67;67.43
27980;BME280;15315;50.836;4.430;2023-02-12T06:03:15;103301.88;;;13.05;66.69
27980;BME280;15315;50.836;4.430;2023-02-12T06:13:16;103294.53;;;12.85;66.66
27980;BME280;15315;50.836;4.430;2023-02-12T06:23:16;103304.19;;;12.92;66.95
27980;BME280;15315;50.836;4.430;2023-02-12T06:33:16;103312.81;;;12.79;65.67
27980;BME280;15315;50.836;4.430;2023-02-12T06:43:17;103318.09;;;12.34;69.85
27980;BME280;15315;50.836;4.430;2023-02-12T06:53:17;103324.66;;;12.52;68.28
27980;BME280;15315;50.836;4.430;2023-02-12T07:03:18;103333.44;;;12.58;67.57
27980;BME280;15315;50.836;4.430;2023-02-12T07:13:18;103334.31;;;12.60;68.49
27980;BME280;15315;50.836;4.430;2023-02-12T07:23:18;103351.72;;;12.76;68.09
27980;BME280;15315;50.836;4.430;2023-02-12T07:33:19;103360.44;;;12.84;67.89
27980;BME280;15315;50.836;4.430;2023-02-12T07:43:19;103358.03;;;12.77;67.33
27980;BME280;15315;50.836;4.430;2023-02-12T07:53:20;103358.81;;;12.80;68.24
27980;BME280;15315;50.836;4.430;2023-02-12T08:03:20;103365.72;;;12.64;68.98
27980;BME280;15315;50.836;4.430;2023-02-12T08:13:21;103362.97;;;12.89;67.96
27980;BME280;15315;50.836;4.430;2023-02-12T08:23:21;103367.31;;;12.45;67.07
27980;BME280;15315;50.836;4.430;2023-02-12T08:33:21;103362.94;;;13.14;65.80
27980;BME280;15315;50.836;4.430;2023-02-12T08:43:22;103366.19;;;13.45;65.39
27980;BME280;15315;50.836;4.430;2023-02-12T08:53:22;103362.84;;;13.38;65.32
27980;BME280;15315;50.836;4.430;2023-02-12T09:03:23;103369.06;;;13.64;64.20
27980;BME280;15315;50.836;4.430;2023-02-12T09:13:24;103360.94;;;12.95;67.61
27980;BME280;15315;50.836;4.430;2023-02-12T09:23:24;103369.88;;;12.97;68.61
27980;BME280;15315;50.836;4.430;2023-02-12T09:33:24;103367.53;;;12.88;68.85
27980;BME280;15315;50.836;4.430;2023-02-12T09:43:38;103377.38;;;12.66;68.14
27980;BME280;15315;50.836;4.430;2023-02-12T09:53:42;103377.66;;;12.83;67.34
27980;BME280;15315;50.836;4.430;2023-02-12T10:03:48;103390.47;;;12.78;67.08
27980;BME280;15315;50.836;4.430;2023-02-12T10:34:56;103388.34;;;13.33;64.86
27980;BME280;15315;50.836;4.430;2023-02-12T10:44:57;103390.34;;;13.94;64.38
27980;BME280;15315;50.836;4.430;2023-02-12T10:54:57;103388.09;;;13.39;63.53
27980;BME280;15315;50.836;4.430;2023-02-12T11:04:59;103379.66;;;13.70;63.16
27980;BME280;15315;50.836;4.430;2023-02-12T11:15:17;103372.09;;;13.56;61.83
27980;BME280;15315;50.836;4.430;2023-02-12T11:25:19;103366.91;;;13.72;62.44
27980;BME280;15315;50.836;4.430;2023-02-12T11:45:31;103359.94;;;14.08;59.77
27980;BME280;15315;50.836;4.430;2023-02-12T11:55:35;103343.91;;;13.60;60.07
27980;BME280;15315;50.836;4.430;2023-02-12T12:05:56;103347.94;;;13.72;59.60
27980;BME280;15315;50.836;4.430;2023-02-12T12:16:11;103326.59;;;13.41;61.16
27980;BME280;15315;50.836;4.430;2023-02-12T12:26:33;103313.44;;;13.53;60.73
27980;BME280;15315;50.836;4.430;2023-02-12T12:47:26;103298.56;;;12.97;60.31
27980;BME280;15315;50.836;4.430;2023-02-12T13:08:07;103279.56;;;13.20;61.27
27980;BME280;15315;50.836;4.430;2023-02-12T13:18:24;103271.06;;;13.08;61.53
27980;BME280;15315;50.836;4.430;2023-02-12T13:28:39;103261.34;;;13.02;62.79
27980;BME280;15315;50.836;4.430;2023-02-12T13:38:47;103245.31;;;12.74;63.93
27980;BME280;15315;50.836;4.430;2023-02-12T14:09:42;103235.19;;;13.24;64.63
27980;BME280;15315;50.836;4.430;2023-02-12T14:30:24;103216.06;;;13.71;63.83
27980;BME280;15315;50.836;4.430;2023-02-12T14:50:44;103218.44;;;12.91;65.34
27980;BME280;15315;50.836;4.430;2023-02-12T15:00:53;103214.53;;;12.77;65.46
27980;BME280;15315;50.836;4.430;2023-02-12T15:11:03;103206.41;;;12.77;66.75
27980;BME280;15315;50.836;4.430;2023-02-12T15:21:15;103213.06;;;13.13;65.21
27980;BME280;15315;50.836;4.430;2023-02-12T15:31:24;103189.81;;;13.29;65.34
27980;BME280;15315;50.836;4.430;2023-02-12T15:41:34;103188.34;;;13.21;65.19
27980;BME280;15315;50.836;4.430;2023-02-12T15:51:37;103187.22;;;13.26;65.81
27980;BME280;15315;50.836;4.430;2023-02-12T16:01:52;103188.88;;;13.09;66.84
27980;BME280;15315;50.836;4.430;2023-02-12T16:11:54;103188.13;;;12.83;67.64
27980;BME280;15315;50.836;4.430;2023-02-12T16:32:04;103185.09;;;12.91;68.69
27980;BME280;15315;50.836;4.430;2023-02-12T16:42:14;103170.09;;;12.82;69.29
27980;BME280;15315;50.836;4.430;2023-02-12T16:52:37;103162.75;;;12.86;69.29
27980;BME280;15315;50.836;4.430;2023-02-12T17:02:38;103170.53;;;12.72;70.23
27980;BME280;15315;50.836;4.430;2023-02-12T17:12:49;103162.41;;;12.72;70.91
27980;BME280;15315;50.836;4.430;2023-02-12T17:22:54;103168.53;;;12.77;71.26
27980;BME280;15315;50.836;4.430;2023-02-12T17:32:57;103168.53;;;12.98;70.64
27980;BME280;15315;50.836;4.430;2023-02-12T17:42:57;103176.41;;;12.83;71.91
27980;BME280;15315;50.836;4.430;2023-02-12T17:52:58;103175.53;;;12.82;72.23
27980;BME280;15315;50.836;4.430;2023-02-12T18:02:58;103179.28;;;13.00;72.04
27980;BME280;15315;50.836;4.430;2023-02-12T18:12:59;103167.28;;;12.85;73.12
27980;BME280;15315;50.836;4.430;2023-02-12T18:22:59;103158.72;;;12.96;72.95
27980;BME280;15315;50.836;4.430;2023-02-12T18:32:59;103159.84;;;12.90;73.38
27980;BME280;15315;50.836;4.430;2023-02-12T18:43:00;103152.41;;;12.74;74.57
27980;BME280;15315;50.836;4.430;2023-02-12T18:53:00;103148.75;;;12.75;74.99
27980;BME280;15315;50.836;4.430;2023-02-12T19:03:01;103155.19;;;12.72;74.92
27980;BME280;15315;50.836;4.430;2023-02-12T19:13:01;103155.00;;;12.77;75.55
27980;BME280;15315;50.836;4.430;2023-02-12T19:23:01;103158.53;;;12.56;76.42
27980;BME280;15315;50.836;4.430;2023-02-12T19:33:03;103161.53;;;12.93;75.72
27980;BME280;15315;50.836;4.430;2023-02-12T19:43:03;103154.06;;;12.78;76.28
27980;BME280;15315;50.836;4.430;2023-02-12T19:53:04;103145.19;;;12.51;79.07
27980;BME280;15315;50.836;4.430;2023-02-12T20:03:04;103148.00;;;12.71;78.02
27980;BME280;15315;50.836;4.430;2023-02-12T20:13:04;103153.47;;;12.47;80.49
27980;BME280;15315;50.836;4.430;2023-02-12T20:23:05;103149.56;;;12.55;80.32
27980;BME280;15315;50.836;4.430;2023-02-12T20:33:05;103153.28;;;12.51;81.11
27980;BME280;15315;50.836;4.430;2023-02-12T20:43:06;103149.19;;;12.64;79.94
27980;BME280;15315;50.836;4.430;2023-02-12T20:53:09;103144.16;;;12.32;82.69
27980;BME280;15315;50.836;4.430;2023-02-12T21:03:09;103149.25;;;12.40;81.88
27980;BME280;15315;50.836;4.430;2023-02-12T21:13:10;103160.38;;;11.61;87.13
27980;BME280;15315;50.836;4.430;2023-02-12T21:23:10;103152.81;;;11.70;87.28
27980;BME280;15315;50.836;4.430;2023-02-12T21:33:11;103150.25;;;12.14;83.50
27980;BME280;15315;50.836;4.430;2023-02-12T21:43:11;103143.84;;;11.93;84.19
27980;BME280;15315;50.836;4.430;2023-02-12T21:53:12;103155.19;;;12.03;80.73
27980;BME280;15315;50.836;4.430;2023-02-12T22:03:12;103153.44;;;11.77;80.64
27980;BME280;15315;50.836;4.430;2023-02-12T22:13:12;103144.31;;;11.81;78.88
27980;BME280;15315;50.836;4.430;2023-02-12T22:23:13;103144.91;;;11.64;78.65
27980;BME280;15315;50.836;4.430;2023-02-12T22:33:14;103138.47;;;11.68;78.17
27980;BME280;15315;50.836;4.430;2023-02-12T22:43:15;103145.72;;;11.16;78.65
27980;BME280;15315;50.836;4.430;2023-02-12T22:53:15;103148.28;;;10.92;79.75
27980;BME280;15315;50.836;4.430;2023-02-12T23:03:16;103143.88;;;10.90;79.29
27980;BME280;15315;50.836;4.430;2023-02-12T23:13:16;103154.69;;;10.90;78.26
27980;BME280;15315;50.836;4.430;2023-02-12T23:23:18;103128.19;;;10.47;79.18
27980;BME280;15315;50.836;4.430;2023-02-12T23:33:19;103125.31;;;10.53;78.40
27980;BME280;15315;50.836;4.430;2023-02-12T23:43:23;103122.25;;;10.36;78.91
27980;BME280;15315;50.836;4.430;2023-02-12T23:53:25;103120.81;;;10.54;77.91
